sensor_id;sensor_type;location;lat;lon;timestamp;P1;durP1;ratioP1;P2;durP2;ratioP2
64210;SDS011;50528;48.514;14.394;2022-08-19T00:00:47;7.10;;;2.60;;
64210;SDS011;50528;48.514;14.394;2022-08-19T00:01:52;8.20;;;3.30;;
64210;SDS011;50528;48.514;14.394;2022-08-19T00:02:57;7.00;;;2.60;;
64210;SDS011;50528;48.514;14.394;2022-08-19T00:04:02;8.50;;;3.10;;
64210;SDS011;50528;48.514;14.394;2022-08-19T00:05:08;6.40;;;3.40;;
64210;SDS011;50528;48.514;14.394;2022-08-19T00:06:13;7.40;;;4.00;;
64210;SDS011;50528;48.514;14.394;2022-08-19T00:07:20;10.80;;;4.60;;
64210;SDS011;50528;48.514;14.394;2022-08-19T00:08:33;9.00;;;3.60;;
64210;SDS011;50528;48.514;14.394;2022-08-19T00:09:36;9.10;;;3.50;;
64210;SDS011;50528;48.514;14.394;2022-08-19T00:10:39;6.60;;;4.00;;
64210;SDS011;50528;48.514;14.394;2022-08-19T00:11:43;7.50;;;3.60;;
64210;SDS011;50528;48.514;14.394;2022-08-19T00:12:46;6.70;;;3.50;;
64210;SDS011;50528;48.514;14.394;2022-08-19T00:13:50;7.30;;;3.20;;
64210;SDS011;50528;48.514;14.394;2022-08-19T00:14:53;8.80;;;3.70;;
64210;SDS011;50528;48.514;14.394;2022-08-19T00:15:57;7.70;;;3.10;;
64210;SDS011;50528;48.514;14.394;2022-08-19T00:17:02;5.30;;;3.10;;
64210;SDS011;50528;48.514;14.394;2022-08-19T00:18:05;10.40;;;3.20;;
64210;SDS011;50528;48.514;14.394;2022-08-19T00:19:09;8.40;;;3.20;;
64210;SDS011;50528;48.514;14.394;2022-08-19T00:20:14;10.20;;;3.00;;
64210;SDS011;50528;48.514;14.394;2022-08-19T00:21:19;8.50;;;3.10;;
64210;SDS011;50528;48.514;14.394;2022-08-19T00:22:25;8.80;;;2.80;;
64210;SDS011;50528;48.514;14.394;2022-08-19T00:23:33;9.90;;;3.40;;
64210;SDS011;50528;48.514;14.394;2022-08-19T00:24:38;8.00;;;3.20;;
64210;SDS011;50528;48.514;14.394;2022-08-19T00:25:52;5.60;;;3.30;;
64210;SDS011;50528;48.514;14.394;2022-08-19T00:26:55;6.90;;;3.30;;
64210;SDS011;50528;48.514;14.394;2022-08-19T00:28:19;9.30;;;3.80;;
64210;SDS011;50528;48.514;14.394;2022-08-19T00:29:23;7.70;;;3.90;;
64210;SDS011;50528;48.514;14.394;2022-08-19T00:30:28;9.20;;;4.10;;
64210;SDS011;50528;48.514;14.394;2022-08-19T00:31:31;9.00;;;5.10;;
64210;SDS011;50528;48.514;14.394;2022-08-19T00:32:34;9.00;;;5.50;;
64210;SDS011;50528;48.514;14.394;2022-08-19T00:33:38;8.30;;;5.40;;
64210;SDS011;50528;48.514;14.394;2022-08-19T00:34:41;11.10;;;5.90;;
64210;SDS011;50528;48.514;14.394;2022-08-19T00:35:44;9.40;;;5.60;;
64210;SDS011;50528;48.514;14.394;2022-08-19T00:36:57;12.20;;;5.60;;
64210;SDS011;50528;48.514;14.394;2022-08-19T00:38:02;8.40;;;4.70;;
64210;SDS011;50528;48.514;14.394;2022-08-19T00:39:07;7.40;;;3.40;;
64210;SDS011;50528;48.514;14.394;2022-08-19T00:40:11;9.90;;;3.20;;
64210;SDS011;50528;48.514;14.394;2022-08-19T00:41:16;14.90;;;3.40;;
64210;SDS011;50528;48.514;14.394;2022-08-19T00:42:25;10.70;;;2.90;;
64210;SDS011;50528;48.514;14.394;2022-08-19T00:43:33;7.30;;;2.80;;
64210;SDS011;50528;48.514;14.394;2022-08-19T00:44:37;7.20;;;2.80;;
64210;SDS011;50528;48.514;14.394;2022-08-19T00:45:40;10.00;;;2.80;;
64210;SDS011;50528;48.514;14.394;2022-08-19T00:46:47;11.20;;;3.00;;
64210;SDS011;50528;48.514;14.394;2022-08-19T00:48:00;8.70;;;2.70;;
64210;SDS011;50528;48.514;14.394;2022-08-19T00:49:23;6.60;;;2.90;;
64210;SDS011;50528;48.514;14.394;2022-08-19T00:50:39;8.50;;;3.00;;
64210;SDS011;50528;48.514;14.394;2022-08-19T00:51:55;8.50;;;3.00;;
64210;SDS011;50528;48.514;14.394;2022-08-19T00:53:09;5.00;;;2.60;;
64210;SDS011;50528;48.514;14.394;2022-08-19T00:54:15;7.70;;;3.00;;
64210;SDS011;50528;48.514;14.394;2022-08-19T00:55:30;8.50;;;3.00;;
64210;SDS011;50528;48.514;14.394;2022-08-19T00:56:35;9.00;;;3.00;;
64210;SDS011;50528;48.514;14.394;2022-08-19T00:57:40;7.10;;;3.10;;
64210;SDS011;50528;48.514;14.394;2022-08-19T00:58:47;7.10;;;2.90;;
64210;SDS011;50528;48.514;14.394;2022-08-19T00:59:59;7.10;;;3.10;;
64210;SDS011;50528;48.514;14.394;2022-08-19T01:01:05;5.90;;;2.90;;
64210;SDS011;50528;48.514;14.394;2022-08-19T01:02:15;6.40;;;3.40;;
64210;SDS011;50528;48.514;14.394;2022-08-19T01:03:19;6.40;;;3.10;;
64210;SDS011;50528;48.514;14.394;2022-08-19T01:04:24;7.70;;;3.60;;
64210;SDS011;50528;48.514;14.394;2022-08-19T01:05:27;8.20;;;4.60;;
64210;SDS011;50528;48.514;14.394;2022-08-19T01:06:32;8.20;;;4.60;;
64210;SDS011;50528;48.514;14.394;2022-08-19T01:07:38;9.60;;;5.50;;
64210;SDS011;50528;48.514;14.394;2022-08-19T01:08:43;9.40;;;5.40;;
64210;SDS011;50528;48.514;14.394;2022-08-19T01:09:46;11.40;;;6.40;;
64210;SDS011;50528;48.514;14.394;2022-08-19T01:10:55;11.10;;;6.60;;
64210;SDS011;50528;48.514;14.394;2022-08-19T01:12:00;11.90;;;7.20;;
64210;SDS011;50528;48.514;14.394;2022-08-19T01:13:04;11.10;;;6.40;;
64210;SDS011;50528;48.514;14.394;2022-08-19T01:14:08;10.60;;;6.30;;
64210;SDS011;50528;48.514;14.394;2022-08-19T01:15:13;6.80;;;4.60;;
64210;SDS011;50528;48.514;14.394;2022-08-19T01:16:22;7.90;;;3.80;;
64210;SDS011;50528;48.514;14.394;2022-08-19T01:17:28;9.60;;;4.30;;
64210;SDS011;50528;48.514;14.394;2022-08-19T01:18:32;8.90;;;4.00;;
64210;SDS011;50528;48.514;14.394;2022-08-19T01:19:40;8.40;;;4.80;;
64210;SDS011;50528;48.514;14.394;2022-08-19T01:20:48;11.10;;;3.90;;
64210;SDS011;50528;48.514;14.394;2022-08-19T01:21:54;8.60;;;4.00;;
64210;SDS011;50528;48.514;14.394;2022-08-19T01:23:16;8.70;;;4.10;;
64210;SDS011;50528;48.514;14.394;2022-08-19T01:24:19;8.70;;;3.70;;
64210;SDS011;50528;48.514;14.394;2022-08-19T01:25:26;9.90;;;3.90;;
64210;SDS011;50528;48.514;14.394;2022-08-19T01:26:42;7.50;;;4.00;;
64210;SDS011;50528;48.514;14.394;2022-08-19T01:27:51;9.40;;;4.10;;
64210;SDS011;50528;48.514;14.394;2022-08-19T01:28:55;9.80;;;4.80;;
64210;SDS011;50528;48.514;14.394;2022-08-19T01:30:03;9.50;;;5.30;;
64210;SDS011;50528;48.514;14.394;2022-08-19T01:31:09;7.70;;;4.50;;
64210;SDS011;50528;48.514;14.394;2022-08-19T01:32:29;11.20;;;5.10;;
64210;SDS011;50528;48.514;14.394;2022-08-19T01:33:36;11.10;;;7.20;;
64210;SDS011;50528;48.514;14.394;2022-08-19T01:34:39;11.30;;;7.20;;
64210;SDS011;50528;48.514;14.394;2022-08-19T01:35:42;12.90;;;5.70;;
64210;SDS011;50528;48.514;14.394;2022-08-19T01:36:46;9.10;;;5.40;;
64210;SDS011;50528;48.514;14.394;2022-08-19T01:37:52;8.00;;;4.90;;
64210;SDS011;50528;48.514;14.394;2022-08-19T01:38:59;10.10;;;5.70;;
64210;SDS011;50528;48.514;14.394;2022-08-19T01:40:04;9.00;;;5.80;;
64210;SDS011;50528;48.514;14.394;2022-08-19T01:41:11;9.60;;;5.80;;
64210;SDS011;50528;48.514;14.394;2022-08-19T01:42:15;8.70;;;6.80;;
64210;SDS011;50528;48.514;14.394;2022-08-19T01:43:18;10.70;;;6.90;;
64210;SDS011;50528;48.514;14.394;2022-08-19T01:44:22;13.30;;;8.00;;
64210;SDS011;50528;48.514;14.394;2022-08-19T01:45:27;10.00;;;6.90;;
64210;SDS011;50528;48.514;14.394;2022-08-19T01:46:32;10.90;;;7.80;;
64210;SDS011;50528;48.514;14.394;2022-08-19T01:47:36;9.40;;;7.30;;
64210;SDS011;50528;48.514;14.394;2022-08-19T01:48:41;12.30;;;7.30;;
64210;SDS011;50528;48.514;14.394;2022-08-19T01:49:46;13.30;;;7.50;;
64210;SDS011;50528;48.514;14.394;2022-08-19T01:50:49;11.30;;;8.00;;
64210;SDS011;50528;48.514;14.394;2022-08-19T01:51:52;9.60;;;7.80;;
64210;SDS011;50528;48.514;14.394;2022-08-19T01:52:56;11.20;;;8.00;;
64210;SDS011;50528;48.514;14.394;2022-08-19T01:54:09;19.10;;;8.40;;
64210;SDS011;50528;48.514;14.394;2022-08-19T01:55:15;11.70;;;7.20;;
64210;SDS011;50528;48.514;14.394;2022-08-19T01:56:21;12.20;;;6.20;;
64210;SDS011;50528;48.514;14.394;2022-08-19T01:57:24;9.60;;;6.40;;
64210;SDS011;50528;48.514;14.394;2022-08-19T01:58:33;12.10;;;6.10;;
64210;SDS011;50528;48.514;14.394;2022-08-19T01:59:44;9.60;;;5.70;;
64210;SDS011;50528;48.514;14.394;2022-08-19T02:00:48;13.40;;;6.60;;
64210;SDS011;50528;48.514;14.394;2022-08-19T02:01:51;7.30;;;5.10;;
64210;SDS011;50528;48.514;14.394;2022-08-19T02:02:54;8.20;;;5.70;;
64210;SDS011;50528;48.514;14.394;2022-08-19T02:03:58;8.50;;;4.30;;
64210;SDS011;50528;48.514;14.394;2022-08-19T02:05:04;8.80;;;4.00;;
64210;SDS011;50528;48.514;14.394;2022-08-19T02:06:13;9.80;;;4.00;;
64210;SDS011;50528;48.514;14.394;2022-08-19T02:07:18;8.50;;;4.30;;
64210;SDS011;50528;48.514;14.394;2022-08-19T02:08:24;7.60;;;4.30;;
64210;SDS011;50528;48.514;14.394;2022-08-19T02:09:27;9.40;;;4.60;;
64210;SDS011;50528;48.514;14.394;2022-08-19T02:10:30;8.80;;;4.70;;
64210;SDS011;50528;48.514;14.394;2022-08-19T02:11:35;10.30;;;4.90;;
64210;SDS011;50528;48.514;14.394;2022-08-19T02:12:40;8.60;;;5.30;;
64210;SDS011;50528;48.514;14.394;2022-08-19T02:13:43;8.60;;;5.10;;
64210;SDS011;50528;48.514;14.394;2022-08-19T02:14:49;8.30;;;4.90;;
64210;SDS011;50528;48.514;14.394;2022-08-19T02:15:53;9.00;;;4.80;;
64210;SDS011;50528;48.514;14.394;2022-08-19T02:16:56;8.60;;;5.00;;
64210;SDS011;50528;48.514;14.394;2022-08-19T02:18:00;9.30;;;4.70;;
64210;SDS011;50528;48.514;14.394;2022-08-19T02:19:03;10.20;;;5.20;;
64210;SDS011;50528;48.514;14.394;2022-08-19T02:20:07;10.80;;;6.60;;
64210;SDS011;50528;48.514;14.394;2022-08-19T02:21:11;10.40;;;5.80;;
64210;SDS011;50528;48.514;14.394;2022-08-19T02:22:15;9.70;;;5.70;;
64210;SDS011;50528;48.514;14.394;2022-08-19T02:23:19;8.80;;;5.70;;
64210;SDS011;50528;48.514;14.394;2022-08-19T02:24:22;9.60;;;6.20;;
64210;SDS011;50528;48.514;14.394;2022-08-19T02:25:25;9.30;;;6.10;;
64210;SDS011;50528;48.514;14.394;2022-08-19T02:26:28;9.50;;;6.70;;
64210;SDS011;50528;48.514;14.394;2022-08-19T02:27:34;9.00;;;7.00;;
64210;SDS011;50528;48.514;14.394;2022-08-19T02:28:38;10.10;;;6.00;;
64210;SDS011;50528;48.514;14.394;2022-08-19T02:29:42;10.80;;;5.90;;
64210;SDS011;50528;48.514;14.394;2022-08-19T02:30:46;11.40;;;6.90;;
64210;SDS011;50528;48.514;14.394;2022-08-19T02:31:52;11.40;;;6.40;;
64210;SDS011;50528;48.514;14.394;2022-08-19T02:32:55;9.30;;;6.50;;
64210;SDS011;50528;48.514;14.394;2022-08-19T02:33:59;10.70;;;7.10;;
64210;SDS011;50528;48.514;14.394;2022-08-19T02:35:03;11.10;;;7.20;;
64210;SDS011;50528;48.514;14.394;2022-08-19T02:36:15;14.30;;;8.90;;
64210;SDS011;50528;48.514;14.394;2022-08-19T02:37:22;11.60;;;7.20;;
64210;SDS011;50528;48.514;14.394;2022-08-19T02:38:44;10.60;;;7.30;;
64210;SDS011;50528;48.514;14.394;2022-08-19T02:39:56;8.60;;;6.40;;
64210;SDS011;50528;48.514;14.394;2022-08-19T02:41:08;8.40;;;6.80;;
64210;SDS011;50528;48.514;14.394;2022-08-19T02:42:16;14.30;;;5.10;;
64210;SDS011;50528;48.514;14.394;2022-08-19T02:43:19;8.70;;;4.90;;
64210;SDS011;50528;48.514;14.394;2022-08-19T02:44:23;13.10;;;6.10;;
64210;SDS011;50528;48.514;14.394;2022-08-19T02:45:36;8.20;;;6.00;;
64210;SDS011;50528;48.514;14.394;2022-08-19T02:46:47;9.20;;;6.00;;
64210;SDS011;50528;48.514;14.394;2022-08-19T02:47:53;10.20;;;6.30;;
64210;SDS011;50528;48.514;14.394;2022-08-19T02:49:01;11.30;;;6.40;;
64210;SDS011;50528;48.514;14.394;2022-08-19T02:50:07;10.80;;;5.90;;
64210;SDS011;50528;48.514;14.394;2022-08-19T02:51:15;10.30;;;6.20;;
64210;SDS011;50528;48.514;14.394;2022-08-19T02:52:22;11.30;;;5.90;;
64210;SDS011;50528;48.514;14.394;2022-08-19T02:53:27;9.40;;;6.40;;
64210;SDS011;50528;48.514;14.394;2022-08-19T02:54:30;11.30;;;6.00;;
64210;SDS011;50528;48.514;14.394;2022-08-19T02:55:34;9.90;;;6.50;;
64210;SDS011;50528;48.514;14.394;2022-08-19T02:56:48;13.40;;;6.40;;
64210;SDS011;50528;48.514;14.394;2022-08-19T02:57:51;12.70;;;8.30;;
64210;SDS011;50528;48.514;14.394;2022-08-19T02:58:54;11.90;;;8.10;;
64210;SDS011;50528;48.514;14.394;2022-08-19T02:59:58;14.60;;;9.70;;
64210;SDS011;50528;48.514;14.394;2022-08-19T03:01:01;12.80;;;9.40;;
64210;SDS011;50528;48.514;14.394;2022-08-19T03:02:05;11.50;;;9.10;;
64210;SDS011;50528;48.514;14.394;2022-08-19T03:03:08;13.50;;;9.90;;
64210;SDS011;50528;48.514;14.394;2022-08-19T03:04:13;13.10;;;9.50;;
64210;SDS011;50528;48.514;14.394;2022-08-19T03:05:18;17.50;;;9.50;;
64210;SDS011;50528;48.514;14.394;2022-08-19T03:06:43;13.20;;;10.10;;
64210;SDS011;50528;48.514;14.394;2022-08-19T03:07:47;12.80;;;8.60;;
64210;SDS011;50528;48.514;14.394;2022-08-19T03:08:51;13.60;;;9.50;;
64210;SDS011;50528;48.514;14.394;2022-08-19T03:09:55;11.40;;;8.40;;
64210;SDS011;50528;48.514;14.394;2022-08-19T03:10:58;12.40;;;8.90;;
64210;SDS011;50528;48.514;14.394;2022-08-19T03:12:02;13.10;;;10.10;;
64210;SDS011;50528;48.514;14.394;2022-08-19T03:13:06;15.00;;;10.20;;
64210;SDS011;50528;48.514;14.394;2022-08-19T03:14:10;16.10;;;10.70;;
64210;SDS011;50528;48.514;14.394;2022-08-19T03:15:14;12.40;;;9.60;;
64210;SDS011;50528;48.514;14.394;2022-08-19T03:16:18;13.70;;;9.50;;
64210;SDS011;50528;48.514;14.394;2022-08-19T03:17:25;13.30;;;9.50;;
64210;SDS011;50528;48.514;14.394;2022-08-19T03:18:28;13.20;;;9.70;;
64210;SDS011;50528;48.514;14.394;2022-08-19T03:19:32;12.60;;;10.10;;
64210;SDS011;50528;48.514;14.394;2022-08-19T03:20:39;15.70;;;9.40;;
64210;SDS011;50528;48.514;14.394;2022-08-19T03:21:50;15.60;;;10.20;;
64210;SDS011;50528;48.514;14.394;2022-08-19T03:22:54;11.30;;;8.80;;
64210;SDS011;50528;48.514;14.394;2022-08-19T03:23:58;18.80;;;9.00;;
64210;SDS011;50528;48.514;14.394;2022-08-19T03:25:04;12.60;;;8.40;;
64210;SDS011;50528;48.514;14.394;2022-08-19T03:26:09;11.60;;;8.50;;
64210;SDS011;50528;48.514;14.394;2022-08-19T03:27:18;10.70;;;8.60;;
64210;SDS011;50528;48.514;14.394;2022-08-19T03:28:21;14.80;;;9.60;;
64210;SDS011;50528;48.514;14.394;2022-08-19T03:29:28;12.10;;;9.80;;
64210;SDS011;50528;48.514;14.394;2022-08-19T03:30:58;16.00;;;10.30;;
64210;SDS011;50528;48.514;14.394;2022-08-19T03:32:29;16.60;;;12.40;;
64210;SDS011;50528;48.514;14.394;2022-08-19T03:33:35;14.50;;;11.40;;
64210;SDS011;50528;48.514;14.394;2022-08-19T03:34:39;16.40;;;11.50;;
64210;SDS011;50528;48.514;14.394;2022-08-19T03:35:42;14.40;;;12.10;;
64210;SDS011;50528;48.514;14.394;2022-08-19T03:36:48;15.00;;;12.60;;
64210;SDS011;50528;48.514;14.394;2022-08-19T03:37:51;16.70;;;12.40;;
64210;SDS011;50528;48.514;14.394;2022-08-19T03:38:56;20.30;;;12.50;;
64210;SDS011;50528;48.514;14.394;2022-08-19T03:40:03;17.70;;;13.10;;
64210;SDS011;50528;48.514;14.394;2022-08-19T03:41:07;15.20;;;11.80;;
64210;SDS011;50528;48.514;14.394;2022-08-19T03:42:14;14.90;;;11.70;;
64210;SDS011;50528;48.514;14.394;2022-08-19T03:43:39;15.10;;;11.60;;
64210;SDS011;50528;48.514;14.394;2022-08-19T03:44:45;15.40;;;12.00;;
64210;SDS011;50528;48.514;14.394;2022-08-19T03:45:48;14.60;;;12.30;;
64210;SDS011;50528;48.514;14.394;2022-08-19T03:46:53;15.20;;;12.50;;
64210;SDS011;50528;48.514;14.394;2022-08-19T03:47:59;16.20;;;12.80;;
64210;SDS011;50528;48.514;14.394;2022-08-19T03:49:03;15.10;;;12.20;;
64210;SDS011;50528;48.514;14.394;2022-08-19T03:50:11;16.90;;;13.30;;
64210;SDS011;50528;48.514;14.394;2022-08-19T03:51:18;14.30;;;12.30;;
64210;SDS011;50528;48.514;14.394;2022-08-19T03:52:33;15.40;;;12.10;;
64210;SDS011;50528;48.514;14.394;2022-08-19T03:53:38;17.80;;;13.00;;
64210;SDS011;50528;48.514;14.394;2022-08-19T03:54:42;15.10;;;10.70;;
64210;SDS011;50528;48.514;14.394;2022-08-19T03:55:45;13.10;;;10.30;;
64210;SDS011;50528;48.514;14.394;2022-08-19T03:56:49;13.00;;;10.40;;
64210;SDS011;50528;48.514;14.394;2022-08-19T03:58:00;12.20;;;9.30;;
64210;SDS011;50528;48.514;14.394;2022-08-19T03:59:04;13.00;;;8.90;;
64210;SDS011;50528;48.514;14.394;2022-08-19T04:00:12;12.00;;;8.70;;
64210;SDS011;50528;48.514;14.394;2022-08-19T04:01:17;16.70;;;8.10;;
64210;SDS011;50528;48.514;14.394;2022-08-19T04:02:32;14.20;;;7.90;;
64210;SDS011;50528;48.514;14.394;2022-08-19T04:03:36;10.90;;;8.10;;
64210;SDS011;50528;48.514;14.394;2022-08-19T04:04:41;9.70;;;7.00;;
64210;SDS011;50528;48.514;14.394;2022-08-19T04:05:46;10.70;;;8.00;;
64210;SDS011;50528;48.514;14.394;2022-08-19T04:06:50;13.70;;;8.20;;
64210;SDS011;50528;48.514;14.394;2022-08-19T04:07:54;12.90;;;7.90;;
64210;SDS011;50528;48.514;14.394;2022-08-19T04:09:03;12.00;;;8.20;;
64210;SDS011;50528;48.514;14.394;2022-08-19T04:10:08;11.90;;;8.20;;
64210;SDS011;50528;48.514;14.394;2022-08-19T04:11:14;12.20;;;8.20;;
64210;SDS011;50528;48.514;14.394;2022-08-19T04:12:19;10.70;;;8.10;;
64210;SDS011;50528;48.514;14.394;2022-08-19T04:13:23;11.20;;;8.90;;
64210;SDS011;50528;48.514;14.394;2022-08-19T04:14:27;15.00;;;11.00;;
64210;SDS011;50528;48.514;14.394;2022-08-19T04:15:40;16.20;;;12.00;;
64210;SDS011;50528;48.514;14.394;2022-08-19T04:16:45;16.30;;;12.50;;
64210;SDS011;50528;48.514;14.394;2022-08-19T04:17:50;17.70;;;14.20;;
64210;SDS011;50528;48.514;14.394;2022-08-19T04:18:53;19.70;;;14.20;;
64210;SDS011;50528;48.514;14.394;2022-08-19T04:19:57;16.60;;;10.90;;
64210;SDS011;50528;48.514;14.394;2022-08-19T04:21:02;12.20;;;9.80;;
64210;SDS011;50528;48.514;14.394;2022-08-19T04:22:07;14.00;;;10.40;;
64210;SDS011;50528;48.514;14.394;2022-08-19T04:23:11;14.90;;;10.50;;
64210;SDS011;50528;48.514;14.394;2022-08-19T04:24:16;15.40;;;10.70;;
64210;SDS011;50528;48.514;14.394;2022-08-19T04:25:19;18.00;;;13.10;;
64210;SDS011;50528;48.514;14.394;2022-08-19T04:26:24;18.40;;;14.30;;
64210;SDS011;50528;48.514;14.394;2022-08-19T04:27:30;21.80;;;16.10;;
64210;SDS011;50528;48.514;14.394;2022-08-19T04:28:33;24.30;;;17.60;;
64210;SDS011;50528;48.514;14.394;2022-08-19T04:29:38;23.90;;;19.00;;
64210;SDS011;50528;48.514;14.394;2022-08-19T04:30:44;24.50;;;18.30;;
64210;SDS011;50528;48.514;14.394;2022-08-19T04:31:53;23.60;;;18.30;;
64210;SDS011;50528;48.514;14.394;2022-08-19T04:32:58;29.30;;;21.10;;
64210;SDS011;50528;48.514;14.394;2022-08-19T04:34:03;29.10;;;21.40;;
64210;SDS011;50528;48.514;14.394;2022-08-19T04:35:08;30.80;;;22.00;;
64210;SDS011;50528;48.514;14.394;2022-08-19T04:36:21;29.30;;;21.40;;
64210;SDS011;50528;48.514;14.394;2022-08-19T04:37:27;29.80;;;23.10;;
64210;SDS011;50528;48.514;14.394;2022-08-19T04:38:37;32.70;;;22.60;;
64210;SDS011;50528;48.514;14.394;2022-08-19T04:39:42;32.80;;;25.00;;
64210;SDS011;50528;48.514;14.394;2022-08-19T04:41:04;37.00;;;26.40;;
64210;SDS011;50528;48.514;14.394;2022-08-19T04:42:26;29.50;;;23.10;;
64210;SDS011;50528;48.514;14.394;2022-08-19T04:43:41;34.70;;;25.00;;
64210;SDS011;50528;48.514;14.394;2022-08-19T04:44:44;33.70;;;25.50;;
64210;SDS011;50528;48.514;14.394;2022-08-19T04:45:48;37.00;;;25.90;;
64210;SDS011;50528;48.514;14.394;2022-08-19T04:46:57;32.80;;;24.40;;
64210;SDS011;50528;48.514;14.394;2022-08-19T04:48:03;30.30;;;23.40;;
64210;SDS011;50528;48.514;14.394;2022-08-19T04:49:27;30.70;;;23.20;;
64210;SDS011;50528;48.514;14.394;2022-08-19T04:50:30;28.90;;;21.50;;
64210;SDS011;50528;48.514;14.394;2022-08-19T04:51:34;30.00;;;23.30;;
64210;SDS011;50528;48.514;14.394;2022-08-19T04:52:38;26.80;;;21.10;;
64210;SDS011;50528;48.514;14.394;2022-08-19T04:53:45;26.40;;;20.10;;
64210;SDS011;50528;48.514;14.394;2022-08-19T04:54:48;27.50;;;22.00;;
64210;SDS011;50528;48.514;14.394;2022-08-19T04:55:52;26.00;;;21.60;;
64210;SDS011;50528;48.514;14.394;2022-08-19T04:56:55;26.10;;;20.20;;
64210;SDS011;50528;48.514;14.394;2022-08-19T04:57:58;26.00;;;22.10;;
64210;SDS011;50528;48.514;14.394;2022-08-19T04:59:02;26.20;;;20.10;;
64210;SDS011;50528;48.514;14.394;2022-08-19T05:00:08;29.20;;;21.70;;
64210;SDS011;50528;48.514;14.394;2022-08-19T05:01:14;25.50;;;21.20;;
64210;SDS011;50528;48.514;14.394;2022-08-19T05:02:21;25.40;;;20.80;;
64210;SDS011;50528;48.514;14.394;2022-08-19T05:03:28;22.90;;;20.10;;
64210;SDS011;50528;48.514;14.394;2022-08-19T05:04:35;25.80;;;21.00;;
64210;SDS011;50528;48.514;14.394;2022-08-19T05:05:42;24.60;;;18.00;;
64210;SDS011;50528;48.514;14.394;2022-08-19T05:06:48;25.80;;;20.20;;
64210;SDS011;50528;48.514;14.394;2022-08-19T05:07:52;26.80;;;20.80;;
64210;SDS011;50528;48.514;14.394;2022-08-19T05:08:55;30.20;;;21.30;;
64210;SDS011;50528;48.514;14.394;2022-08-19T05:09:58;25.70;;;21.60;;
64210;SDS011;50528;48.514;14.394;2022-08-19T05:11:06;26.20;;;20.80;;
64210;SDS011;50528;48.514;14.394;2022-08-19T05:12:15;23.50;;;19.50;;
64210;SDS011;50528;48.514;14.394;2022-08-19T05:13:21;30.90;;;20.60;;
64210;SDS011;50528;48.514;14.394;2022-08-19T05:14:24;28.10;;;19.90;;
64210;SDS011;50528;48.514;14.394;2022-08-19T05:15:27;28.60;;;20.00;;
64210;SDS011;50528;48.514;14.394;2022-08-19T05:16:30;25.00;;;20.80;;
64210;SDS011;50528;48.514;14.394;2022-08-19T05:17:34;28.20;;;22.60;;
64210;SDS011;50528;48.514;14.394;2022-08-19T05:18:40;26.30;;;22.00;;
64210;SDS011;50528;48.514;14.394;2022-08-19T05:20:04;27.60;;;21.50;;
64210;SDS011;50528;48.514;14.394;2022-08-19T05:21:28;28.30;;;20.10;;
64210;SDS011;50528;48.514;14.394;2022-08-19T05:22:51;31.10;;;21.60;;
64210;SDS011;50528;48.514;14.394;2022-08-19T05:23:55;29.90;;;21.20;;
64210;SDS011;50528;48.514;14.394;2022-08-19T05:24:58;29.30;;;21.60;;
64210;SDS011;50528;48.514;14.394;2022-08-19T05:26:15;29.70;;;21.80;;
64210;SDS011;50528;48.514;14.394;2022-08-19T05:27:18;27.00;;;21.40;;
64210;SDS011;50528;48.514;14.394;2022-08-19T05:28:21;26.20;;;20.30;;
64210;SDS011;50528;48.514;14.394;2022-08-19T05:29:25;27.70;;;20.80;;
64210;SDS011;50528;48.514;14.394;2022-08-19T05:30:39;28.20;;;21.60;;
64210;SDS011;50528;48.514;14.394;2022-08-19T05:31:49;26.50;;;21.40;;
64210;SDS011;50528;48.514;14.394;2022-08-19T05:32:53;31.70;;;23.10;;
64210;SDS011;50528;48.514;14.394;2022-08-19T05:33:58;28.70;;;22.30;;
64210;SDS011;50528;48.514;14.394;2022-08-19T05:35:02;30.40;;;21.60;;
64210;SDS011;50528;48.514;14.394;2022-08-19T05:36:06;28.80;;;22.10;;
64210;SDS011;50528;48.514;14.394;2022-08-19T05:37:10;26.90;;;21.40;;
64210;SDS011;50528;48.514;14.394;2022-08-19T05:38:18;29.20;;;21.80;;
64210;SDS011;50528;48.514;14.394;2022-08-19T05:39:23;31.10;;;22.10;;
64210;SDS011;50528;48.514;14.394;2022-08-19T05:40:28;29.50;;;22.10;;
64210;SDS011;50528;48.514;14.394;2022-08-19T05:41:32;28.50;;;22.30;;
64210;SDS011;50528;48.514;14.394;2022-08-19T05:42:37;26.60;;;20.90;;
64210;SDS011;50528;48.514;14.394;2022-08-19T05:43:40;30.10;;;23.00;;
64210;SDS011;50528;48.514;14.394;2022-08-19T05:44:43;33.10;;;22.50;;
64210;SDS011;50528;48.514;14.394;2022-08-19T05:45:47;29.20;;;22.40;;
64210;SDS011;50528;48.514;14.394;2022-08-19T05:46:53;29.40;;;22.10;;
64210;SDS011;50528;48.514;14.394;2022-08-19T05:47:56;27.80;;;22.10;;
64210;SDS011;50528;48.514;14.394;2022-08-19T05:49:00;30.90;;;22.70;;
64210;SDS011;50528;48.514;14.394;2022-08-19T05:50:04;30.60;;;22.10;;
64210;SDS011;50528;48.514;14.394;2022-08-19T05:51:07;28.70;;;22.70;;
64210;SDS011;50528;48.514;14.394;2022-08-19T05:52:12;29.40;;;21.90;;
64210;SDS011;50528;48.514;14.394;2022-08-19T05:53:27;29.80;;;23.10;;
64210;SDS011;50528;48.514;14.394;2022-08-19T05:54:31;29.20;;;22.30;;
64210;SDS011;50528;48.514;14.394;2022-08-19T05:55:34;29.90;;;20.80;;
64210;SDS011;50528;48.514;14.394;2022-08-19T05:56:40;29.30;;;21.50;;
64210;SDS011;50528;48.514;14.394;2022-08-19T05:57:44;29.20;;;21.60;;
64210;SDS011;50528;48.514;14.394;2022-08-19T05:58:47;26.30;;;21.10;;
64210;SDS011;50528;48.514;14.394;2022-08-19T05:59:50;27.10;;;20.90;;
64210;SDS011;50528;48.514;14.394;2022-08-19T06:01:00;25.10;;;20.50;;
64210;SDS011;50528;48.514;14.394;2022-08-19T06:02:07;24.30;;;19.70;;
64210;SDS011;50528;48.514;14.394;2022-08-19T06:03:10;24.60;;;19.60;;
64210;SDS011;50528;48.514;14.394;2022-08-19T06:04:14;24.20;;;20.20;;
64210;SDS011;50528;48.514;14.394;2022-08-19T06:05:18;26.00;;;20.20;;
64210;SDS011;50528;48.514;14.394;2022-08-19T06:06:22;26.60;;;20.90;;
64210;SDS011;50528;48.514;14.394;2022-08-19T06:07:25;27.10;;;21.20;;
64210;SDS011;50528;48.514;14.394;2022-08-19T06:08:29;31.70;;;22.30;;
64210;SDS011;50528;48.514;14.394;2022-08-19T06:09:39;25.60;;;20.90;;
64210;SDS011;50528;48.514;14.394;2022-08-19T06:11:19;25.90;;;19.60;;
64210;SDS011;50528;48.514;14.394;2022-08-19T06:12:24;26.10;;;20.10;;
64210;SDS011;50528;48.514;14.394;2022-08-19T06:13:31;28.50;;;20.00;;
64210;SDS011;50528;48.514;14.394;2022-08-19T06:14:39;24.80;;;19.80;;
64210;SDS011;50528;48.514;14.394;2022-08-19T06:15:46;24.30;;;19.70;;
64210;SDS011;50528;48.514;14.394;2022-08-19T06:16:50;24.40;;;19.30;;
64210;SDS011;50528;48.514;14.394;2022-08-19T06:17:56;24.00;;;19.30;;
64210;SDS011;50528;48.514;14.394;2022-08-19T06:19:00;24.60;;;18.40;;
64210;SDS011;50528;48.514;14.394;2022-08-19T06:20:07;22.30;;;18.30;;
64210;SDS011;50528;48.514;14.394;2022-08-19T06:21:16;24.50;;;18.50;;
64210;SDS011;50528;48.514;14.394;2022-08-19T06:22:20;23.20;;;18.30;;
64210;SDS011;50528;48.514;14.394;2022-08-19T06:23:25;22.90;;;18.60;;
64210;SDS011;50528;48.514;14.394;2022-08-19T06:24:29;24.00;;;18.60;;
64210;SDS011;50528;48.514;14.394;2022-08-19T06:25:32;23.50;;;18.00;;
64210;SDS011;50528;48.514;14.394;2022-08-19T06:26:37;22.50;;;18.20;;
64210;SDS011;50528;48.514;14.394;2022-08-19T06:27:43;20.80;;;18.10;;
64210;SDS011;50528;48.514;14.394;2022-08-19T06:29:07;21.50;;;17.70;;